Pagina principale
METAR-TAF:

METAR-TAF

Aeroporti :

Şırnak, Turchia

latitudine: 37-21-50N, longitudine: 42-03-36E, altezza: 621 m

Osservazione

Il bollettino è stato emesso 5 ore e 19 minuti fa, alle 13:50 UTC
Vento 4 kt da sud/sud-est
Temperature 15°C
Umidità 59%
Pressione 1014 hPa
Visibilità 10 km o più
Nubi sparse ad un'altezza di 3500 ft

METAR: LTCV 241350Z 15004KT 9999 SCT035 15/07 Q1014

Ora: 22:09 (19:09 UTC)

Previsione

Il bollettino è stato emesso 5 ore e 29 minuti fa, alle 13:40 UTC
Previsione valida dal 24 alle 15 UTC al 24 alle 24 UTC
Vento 2 kt da direzioni variabili
Visibilità 10 km o più
Nubi sparse ad un'altezza di 4000 ft
Temporaneamente
dal 24 alle 18 UTC al 24 alle 22 UTC
Poco nuvoloso ad un'altezza di 2500 ft, Cumulonembo.
Nuvoloso ad un'altezza di 3500 ft
rovesci di pioggia

TAF: LTCV 241340Z 2415/2424 VRB02KT 9999 SCT040 TEMPO 2418/2422 -SHRA FEW025CB BKN035

Osservazioni e previsioni meteorologiche di più di 4000 aeroporti (messaggi METAR e TAF).

Le stazioni disponibili sono rappresentate dai dischi gialli e rossi sulla carta.

Puntare il mouse per vedere il nome della stazione.

Clicca sopra per visualizzare le osservazioni e previsioni meteorologiche.

Per cambiare la mappa : fare clic sui pulsanti verdi con una croce nera per ingrandire, il pulsante verde con un trattino per diminuire, o sulla freccia verde per le mappe adiacenti.


METAR-TAF: